createdAt,value
2023-02-01T00:01:30.103Z,100962.09
2023-02-01T00:03:57.278Z,100961.13
2023-02-01T00:06:24.513Z,100963.69
2023-02-01T00:08:55.354Z,100959.41
2023-02-01T00:11:24.426Z,100969.06
2023-02-01T00:13:52.186Z,100967.22
2023-02-01T00:16:26.307Z,100948.97
2023-02-01T00:19:05.423Z,100941.00
2023-02-01T00:21:33.397Z,100938.97
2023-02-01T00:24:01.159Z,100930.69
2023-02-01T00:26:36.718Z,100923.53
2023-02-01T00:29:10.029Z,100914.72
2023-02-01T00:31:37.222Z,100914.66
2023-02-01T00:34:04.860Z,100927.00
2023-02-01T00:36:32.522Z,100934.91
2023-02-01T00:38:59.540Z,100921.03
2023-02-01T00:41:27.147Z,100928.84
2023-02-01T00:43:54.186Z,100908.59
2023-02-01T00:46:22.802Z,100911.22
2023-02-01T00:48:50.803Z,100910.44
2023-02-01T00:51:22.378Z,100906.03
2023-02-01T00:53:49.959Z,100911.22
2023-02-01T00:56:17.574Z,100913.84
2023-02-01T00:58:46.043Z,100919.06
2023-02-01T01:01:21.876Z,100922.59
2023-02-01T01:03:55.192Z,100927.13
2023-02-01T01:06:34.590Z,100923.84
2023-02-01T01:09:05.802Z,100922.13
2023-02-01T01:11:36.792Z,100916.75
2023-02-01T01:14:05.396Z,100919.38
2023-02-01T01:16:33.502Z,100927.28
2023-02-01T01:19:01.669Z,100924.78
2023-02-01T01:21:29.914Z,100934.44
2023-02-01T01:23:57.378Z,100930.09
2023-02-01T01:26:29.343Z,100930.03
2023-02-01T01:28:58.704Z,100925.69
2023-02-01T01:31:26.713Z,100922.94
2023-02-01T01:33:57.128Z,100916.88
2023-02-01T01:36:25.809Z,100914.38
2023-02-01T01:38:53.515Z,100908.16
2023-02-01T01:41:25.500Z,100914.25
2023-02-01T01:44:08.993Z,100919.56
2023-02-01T01:46:41.994Z,100918.66
2023-02-01T01:49:22.195Z,100906.28
2023-02-01T01:51:55.180Z,100894.00
2023-02-01T01:54:38.782Z,100901.09
2023-02-01T01:57:10.290Z,100907.28
2023-02-01T01:59:41.396Z,100899.34
2023-02-01T02:02:08.489Z,100902.81
2023-02-01T02:04:36.614Z,100914.19
2023-02-01T02:07:13.552Z,100919.50
2023-02-01T02:09:48.193Z,100918.66
2023-02-01T02:12:22.252Z,100910.78
2023-02-01T02:14:50.542Z,100905.56
2023-02-01T02:17:37.438Z,100912.53
2023-02-01T02:20:37.271Z,100907.22
2023-02-01T02:23:29.307Z,100910.78
2023-02-01T02:26:08.426Z,100891.72
2023-02-01T02:29:00.502Z,100889.00
2023-02-01T02:31:59.892Z,100899.94
2023-02-01T02:34:53.193Z,100906.59
2023-02-01T02:37:26.219Z,100901.34
2023-02-01T02:40:13.275Z,100911.00
2023-02-01T02:43:14.095Z,100893.19
2023-02-01T02:46:35.571Z,100885.53
2023-02-01T02:49:13.259Z,100869.19
2023-02-01T02:52:10.586Z,100889.56
2023-02-01T02:54:47.359Z,100874.75
2023-02-01T02:57:52.707Z,100883.47
2023-02-01T03:00:48.252Z,100871.91
2023-02-01T03:03:34.196Z,100876.31
2023-02-01T03:06:01.879Z,100865.00
2023-02-01T03:08:32.288Z,100877.31
2023-02-01T03:11:10.802Z,100875.53
2023-02-01T03:13:54.065Z,100875.47
2023-02-01T03:16:59.491Z,100866.78
2023-02-01T03:19:34.389Z,100869.22
2023-02-01T03:22:07.637Z,100862.16
2023-02-01T03:24:49.018Z,100879.84
2023-02-01T03:27:33.840Z,100866.03
2023-02-01T03:30:25.118Z,100866.88
2023-02-01T03:33:01.149Z,100873.97
2023-02-01T03:35:58.470Z,100849.41
2023-02-01T03:38:40.497Z,100853.81
2023-02-01T03:41:14.825Z,100849.19
2023-02-01T03:44:02.220Z,100861.47
2023-02-01T03:46:47.707Z,100867.56
2023-02-01T03:49:41.114Z,100874.03
2023-02-01T03:52:16.749Z,100877.59
2023-02-01T03:54:45.342Z,100872.84
2023-02-01T03:57:18.086Z,100871.50
2023-02-01T03:59:46.758Z,100873.28
2023-02-01T04:02:13.888Z,100859.97
2023-02-01T04:04:40.947Z,100861.84
2023-02-01T04:07:07.981Z,100871.91
2023-02-01T04:09:34.987Z,100864.09
2023-02-01T04:12:01.982Z,100852.44
2023-02-01T04:14:28.953Z,100851.56
2023-02-01T04:16:55.913Z,100832.34
2023-02-01T04:19:22.904Z,100829.81
2023-02-01T04:21:49.875Z,100840.97
2023-02-01T04:24:16.894Z,100844.88
2023-02-01T04:26:44.285Z,100834.28
2023-02-01T04:29:11.639Z,100831.41
2023-02-01T04:31:38.690Z,100828.97
2023-02-01T04:34:05.793Z,100854.22
2023-02-01T04:36:32.879Z,100875.44
2023-02-01T04:38:59.927Z,100868.50
2023-02-01T04:41:27.016Z,100879.66
2023-02-01T04:43:54.063Z,100871.34
2023-02-01T04:46:21.126Z,100857.22
2023-02-01T04:48:48.125Z,100850.56
2023-02-01T04:51:16.272Z,100841.56
2023-02-01T04:53:43.286Z,100827.75
2023-02-01T04:56:10.383Z,100825.97
2023-02-01T04:58:37.794Z,100830.38
2023-02-01T05:01:06.738Z,100828.66
2023-02-01T05:03:34.770Z,100822.56
2023-02-01T05:06:02.062Z,100825.97
2023-02-01T05:08:29.925Z,100836.78
2023-02-01T05:10:56.923Z,100841.19
2023-02-01T05:13:42.145Z,100829.69
2023-02-01T05:16:09.318Z,100839.03
2023-02-01T05:18:36.433Z,100846.06
2023-02-01T05:21:03.438Z,100845.19
2023-02-01T05:23:30.601Z,100861.78
2023-02-01T05:26:02.045Z,100847.81
2023-02-01T05:28:29.584Z,100863.78
2023-02-01T05:30:56.714Z,100874.19
2023-02-01T05:33:23.786Z,100869.66
2023-02-01T05:35:51.624Z,100866.81
2023-02-01T05:38:18.578Z,100869.78
2023-02-01T05:40:50.616Z,100871.19
2023-02-01T05:43:17.916Z,100860.75
2023-02-01T05:45:44.889Z,100851.09
2023-02-01T05:48:11.843Z,100853.72
2023-02-01T05:50:39.014Z,100847.25
2023-02-01T05:53:06.522Z,100851.59
2023-02-01T05:55:33.996Z,100846.06
2023-02-01T05:58:01.063Z,100831.84
2023-02-01T06:00:28.242Z,100832.91
2023-02-01T06:02:55.275Z,100838.59
2023-02-01T06:05:22.792Z,100850.03
2023-02-01T06:07:50.823Z,100836.59
2023-02-01T06:10:19.004Z,100819.06
2023-02-01T06:12:46.726Z,100821.91
2023-02-01T06:15:16.757Z,100821.69
2023-02-01T06:17:46.280Z,100829.50
2023-02-01T06:20:15.922Z,100841.56
2023-02-01T06:22:42.946Z,100846.03
2023-02-01T06:25:11.427Z,100860.38
2023-02-01T06:27:38.756Z,100856.63
2023-02-01T06:30:07.728Z,100845.53
2023-02-01T06:32:34.725Z,100859.81
2023-02-01T06:35:01.665Z,100862.03
2023-02-01T06:37:30.515Z,100851.25
2023-02-01T06:39:57.621Z,100850.25
2023-02-01T06:42:24.714Z,100838.16
2023-02-01T06:44:51.659Z,100828.03
2023-02-01T06:47:18.605Z,100836.13
2023-02-01T06:49:45.582Z,100839.75
2023-02-01T06:52:12.575Z,100830.09
2023-02-01T06:54:39.559Z,100816.06
2023-02-01T06:57:06.606Z,100820.31
2023-02-01T06:59:33.562Z,100809.72
2023-02-01T07:02:00.701Z,100814.75
2023-02-01T07:04:27.680Z,100811.63
2023-02-01T07:06:54.737Z,100816.19
2023-02-01T07:09:21.769Z,100810.78
2023-02-01T07:11:48.808Z,100803.59
2023-02-01T07:14:15.891Z,100811.66
2023-02-01T07:16:46.212Z,100811.41
2023-02-01T07:19:13.296Z,100806.19
2023-02-01T07:21:40.397Z,100802.41
2023-02-01T07:24:07.674Z,100794.25
2023-02-01T07:26:34.788Z,100800.91
2023-02-01T07:29:02.043Z,100814.84
2023-02-01T07:31:30.006Z,100806.81
2023-02-01T07:33:58.737Z,100808.97
2023-02-01T07:36:26.121Z,100806.91
2023-02-01T07:38:56.405Z,100803.19
2023-02-01T07:41:23.727Z,100806.03
2023-02-01T07:43:54.261Z,100797.22
2023-02-01T07:46:21.502Z,100788.63
2023-02-01T07:48:48.533Z,100788.72
2023-02-01T07:51:17.926Z,100776.06
2023-02-01T07:53:45.920Z,100785.50
2023-02-01T07:56:23.481Z,100800.03
2023-02-01T07:58:52.008Z,100820.78
2023-02-01T08:01:23.914Z,100847.72
2023-02-01T08:04:02.799Z,100857.06
2023-02-01T08:06:33.110Z,100869.41
2023-02-01T08:09:00.674Z,100884.09
2023-02-01T08:11:28.306Z,100890.56
2023-02-01T08:13:55.683Z,100895.97
2023-02-01T08:16:24.413Z,100899.88
2023-02-01T08:18:52.507Z,100908.75
2023-02-01T08:21:23.271Z,100908.97
2023-02-01T08:23:51.263Z,100913.56
2023-02-01T08:26:24.040Z,100904.34
2023-02-01T08:28:57.926Z,100910.50
2023-02-01T08:31:27.300Z,100908.47
2023-02-01T08:34:01.857Z,100921.78
2023-02-01T08:36:31.394Z,100918.25
2023-02-01T08:38:58.976Z,100921.94
2023-02-01T08:41:29.094Z,100923.88
2023-02-01T08:43:57.577Z,100923.09
2023-02-01T08:46:25.078Z,100917.91
2023-02-01T08:48:52.547Z,100919.22
2023-02-01T08:51:22.448Z,100918.44
2023-02-01T08:53:50.404Z,100911.34
2023-02-01T08:56:19.317Z,100923.06
2023-02-01T08:58:46.697Z,100919.84
2023-02-01T09:01:18.473Z,100896.06
2023-02-01T09:03:45.855Z,100893.97
2023-02-01T09:06:15.897Z,100883.56
2023-02-01T09:08:44.239Z,100878.38
2023-02-01T09:11:20.477Z,100871.47
2023-02-01T09:13:49.135Z,100859.50
2023-02-01T09:16:17.048Z,100860.47
2023-02-01T09:18:56.270Z,100846.59
2023-02-01T09:21:31.356Z,100842.47
2023-02-01T09:23:58.656Z,100848.84
2023-02-01T09:26:32.216Z,100830.28
2023-02-01T09:29:00.911Z,100800.25
2023-02-01T09:31:28.328Z,100793.13
2023-02-01T09:33:55.411Z,100813.09
2023-02-01T09:36:22.530Z,100804.47
2023-02-01T09:38:53.327Z,100806.06
2023-02-01T09:41:41.477Z,100824.16
2023-02-01T09:44:42.414Z,100835.53
2023-02-01T09:47:18.382Z,100835.75
2023-02-01T09:50:00.799Z,100829.69
2023-02-01T09:52:47.286Z,100825.34
2023-02-01T09:55:44.645Z,100819.97
2023-02-01T09:58:25.046Z,100812.25
2023-02-01T10:00:56.885Z,100801.66
2023-02-01T10:03:29.351Z,100795.69
2023-02-01T10:06:33.957Z,100783.31
2023-02-01T10:09:32.317Z,100794.50
2023-02-01T10:12:08.371Z,100795.66
2023-02-01T10:14:56.213Z,100790.25
2023-02-01T10:17:44.960Z,100794.94
2023-02-01T10:20:51.550Z,100763.41
2023-02-01T10:23:49.105Z,100754.41
2023-02-01T10:26:22.109Z,100752.69
2023-02-01T10:29:01.624Z,100744.03
2023-02-01T10:31:37.748Z,100740.72
2023-02-01T10:34:33.486Z,100732.19
2023-02-01T10:37:22.579Z,100713.16
2023-02-01T10:39:51.041Z,100701.84
2023-02-01T10:42:26.747Z,100700.00
2023-02-01T10:44:58.145Z,100706.94
2023-02-01T10:47:25.524Z,100692.97
2023-02-01T10:50:26.556Z,100649.34
2023-02-01T10:53:07.627Z,100672.78
2023-02-01T10:55:50.590Z,100692.03
2023-02-01T10:58:21.883Z,100687.72
2023-02-01T11:00:58.760Z,100686.91
2023-02-01T11:03:43.191Z,100671.41
2023-02-01T11:06:39.862Z,100631.13
2023-02-01T11:09:09.541Z,100607.34
2023-02-01T11:11:57.839Z,100593.31
2023-02-01T11:14:39.546Z,100553.09
2023-02-01T11:17:27.304Z,100547.00
2023-02-01T11:20:05.726Z,100569.66
2023-02-01T11:22:33.292Z,100560.16
2023-02-01T11:25:02.825Z,100561.94
2023-02-01T11:27:30.209Z,100553.22
2023-02-01T11:30:01.793Z,100562.84
2023-02-01T11:32:29.225Z,100547.97
2023-02-01T11:35:06.039Z,100541.81
2023-02-01T11:37:41.942Z,100543.56
2023-02-01T11:40:36.081Z,100505.16
2023-02-01T11:43:23.979Z,100508.66
2023-02-01T11:46:04.279Z,100517.47
2023-02-01T11:48:35.118Z,100504.31
2023-02-01T11:51:38.023Z,100477.25
2023-02-01T11:54:30.624Z,100482.47
2023-02-01T11:57:21.061Z,100474.56
2023-02-01T12:00:20.453Z,100468.53
2023-02-01T12:03:26.631Z,100471.88
2023-02-01T12:06:38.961Z,100476.16
2023-02-01T12:09:19.264Z,100482.41
2023-02-01T12:12:07.782Z,100473.56
2023-02-01T12:15:03.695Z,100486.66
2023-02-01T12:18:14.447Z,100453.41
2023-02-01T12:21:15.898Z,100477.97
2023-02-01T12:24:09.251Z,100469.19
2023-02-01T12:27:06.728Z,100476.22
2023-02-01T12:29:42.348Z,100463.13
2023-02-01T12:32:32.770Z,100434.94
2023-02-01T12:35:39.976Z,100407.81
2023-02-01T12:38:28.290Z,100408.56
2023-02-01T12:41:27.862Z,100418.22
2023-02-01T12:44:41.838Z,100417.44
2023-02-01T12:47:43.079Z,100391.22
2023-02-01T12:50:33.652Z,100393.88
2023-02-01T12:53:27.871Z,100379.91
2023-02-01T12:56:02.093Z,100349.16
2023-02-01T13:01:13.489Z,100319.41
2023-02-01T13:04:18.670Z,100308.00
2023-02-01T13:06:50.355Z,100294.03
2023-02-01T13:09:20.197Z,100277.56
2023-02-01T13:11:50.515Z,100279.56
2023-02-01T13:14:47.538Z,100260.34
2023-02-01T13:17:28.281Z,100242.03
2023-02-01T13:20:15.192Z,100257.91
2023-02-01T13:23:12.542Z,100227.34
2023-02-01T13:25:53.633Z,100198.41
2023-02-01T13:28:36.756Z,100165.91
2023-02-01T13:31:45.936Z,100142.94
2023-02-01T13:34:41.953Z,100140.28
2023-02-01T13:37:58.709Z,100152.56
2023-02-01T13:40:35.036Z,100160.47
2023-02-01T13:43:33.009Z,100169.38
2023-02-01T13:46:08.591Z,100176.59
2023-02-01T13:48:51.996Z,100175.72
2023-02-01T13:51:47.713Z,100180.22
2023-02-01T13:54:44.594Z,100175.09
2023-02-01T13:57:38.177Z,100181.59
2023-02-01T14:00:27.260Z,100119.16
2023-02-01T14:03:02.812Z,100153.56
2023-02-01T14:05:33.343Z,100120.06
2023-02-01T14:08:06.483Z,100151.91
2023-02-01T14:11:01.283Z,100136.63
2023-02-01T14:13:41.390Z,100086.59
2023-02-01T14:16:17.149Z,100114.16
2023-02-01T14:18:46.710Z,100133.53
2023-02-01T14:21:23.264Z,100055.97
2023-02-01T14:24:09.204Z,100019.84
2023-02-01T14:26:36.489Z,100004.19
2023-02-01T14:29:03.730Z,100018.50
2023-02-01T14:31:42.363Z,100025.75
2023-02-01T14:34:20.147Z,99966.78
2023-02-01T14:37:18.497Z,99950.91
2023-02-01T14:39:48.368Z,99999.53
2023-02-01T14:42:43.244Z,99951.19
2023-02-01T14:45:26.274Z,99923.03
2023-02-01T14:48:06.467Z,99915.16
2023-02-01T14:50:34.030Z,99913.44
2023-02-01T14:53:12.896Z,99948.91
2023-02-01T14:55:43.114Z,99866.94
2023-02-01T14:58:53.645Z,99852.81
2023-02-01T15:01:30.477Z,99839.47
2023-02-01T15:04:16.407Z,99817.19
2023-02-01T15:06:54.788Z,99840.81
2023-02-01T15:09:32.761Z,99831.03
2023-02-01T15:12:05.516Z,99882.97
2023-02-01T15:14:38.199Z,99862.63
2023-02-01T15:17:28.517Z,99842.34
2023-02-01T15:20:00.586Z,99840.66
2023-02-01T15:22:31.725Z,99856.47
2023-02-01T15:25:01.408Z,99848.63
2023-02-01T15:27:30.403Z,99840.66
2023-02-01T15:30:18.670Z,99827.44
2023-02-01T15:32:46.667Z,99865.00
2023-02-01T15:35:33.745Z,99841.28
2023-02-01T15:38:25.924Z,99866.59
2023-02-01T15:41:00.781Z,99864.88
2023-02-01T15:43:31.279Z,99846.38
2023-02-01T15:46:01.276Z,99869.97
2023-02-01T15:48:37.632Z,99888.31
2023-02-01T15:51:05.738Z,99882.97
2023-02-01T15:53:33.991Z,99918.91
2023-02-01T15:56:04.689Z,99916.16
2023-02-01T15:58:32.925Z,99934.50
2023-02-01T16:01:08.060Z,99955.47
2023-02-01T16:03:44.749Z,99959.78
2023-02-01T16:06:28.992Z,99976.34
2023-02-01T16:09:11.240Z,99978.28
2023-02-01T16:12:03.381Z,99952.63
2023-02-01T16:14:30.853Z,99955.78
2023-02-01T16:16:59.954Z,99970.66
2023-02-01T16:19:29.353Z,99965.50
2023-02-01T16:21:57.604Z,99977.66
2023-02-01T16:24:26.986Z,99968.69
2023-02-01T16:26:54.232Z,99987.97
2023-02-01T16:29:22.735Z,100015.94
2023-02-01T16:31:51.386Z,100015.66
2023-02-01T16:34:19.278Z,100027.97
2023-02-01T16:36:56.640Z,100040.34
2023-02-01T16:39:24.860Z,100057.16
2023-02-01T16:41:52.278Z,100045.69
2023-02-01T16:44:19.575Z,100048.28
2023-02-01T16:46:49.026Z,100038.47
2023-02-01T16:49:29.361Z,100044.47
2023-02-01T16:52:07.546Z,100050.03
2023-02-01T16:54:50.300Z,100033.00
2023-02-01T16:57:24.411Z,100049.97
2023-02-01T16:59:52.140Z,100042.03
2023-02-01T17:02:21.465Z,100053.56
2023-02-01T17:04:49.959Z,100047.44
2023-02-01T17:07:20.505Z,100021.06
2023-02-01T17:09:49.494Z,100015.69
2023-02-01T17:12:33.439Z,100034.16
2023-02-01T17:15:05.227Z,100019.88
2023-02-01T17:17:40.225Z,100036.91
2023-02-01T17:20:20.727Z,100026.31
2023-02-01T17:22:48.329Z,100009.72
2023-02-01T17:25:19.491Z,99987.28
2023-02-01T17:27:47.020Z,100007.53
2023-02-01T17:30:21.438Z,100007.59
2023-02-01T17:32:48.964Z,100012.88
2023-02-01T17:35:23.659Z,100005.88
2023-02-01T17:37:52.466Z,99997.47
2023-02-01T17:40:22.150Z,99987.88
2023-02-01T17:42:52.495Z,99966.59
2023-02-01T17:45:37.227Z,99980.75
2023-02-01T17:48:06.733Z,99956.81
2023-02-01T17:50:37.255Z,99968.38
2023-02-01T17:53:10.254Z,99950.84
2023-02-01T17:55:42.415Z,99952.38
2023-02-01T17:58:13.437Z,99967.56
2023-02-01T18:00:46.223Z,99937.91
2023-02-01T18:03:30.245Z,99930.69
2023-02-01T18:05:59.417Z,99929.66
2023-02-01T18:08:35.489Z,99938.38
2023-02-01T18:11:12.656Z,99932.22
2023-02-01T18:13:41.540Z,99954.25
2023-02-01T18:16:26.483Z,99948.19
2023-02-01T18:18:54.115Z,99936.72
2023-02-01T18:21:23.097Z,99924.44
2023-02-01T18:23:51.437Z,99932.47
2023-02-01T18:26:19.429Z,99940.53
2023-02-01T18:28:48.090Z,99942.16
2023-02-01T18:31:23.871Z,99948.41
2023-02-01T18:33:53.443Z,99941.03
2023-02-01T18:36:21.623Z,99970.91
2023-02-01T18:38:49.464Z,99986.69
2023-02-01T18:41:23.216Z,99981.38
2023-02-01T18:43:51.864Z,99976.03
2023-02-01T18:46:19.724Z,99997.13
2023-02-01T18:48:46.723Z,99984.94
2023-02-01T18:51:19.891Z,99994.53
2023-02-01T18:53:48.785Z,99992.00
2023-02-01T18:56:18.580Z,99990.09
2023-02-01T18:58:46.069Z,99984.06
2023-02-01T19:01:18.978Z,99996.13
2023-02-01T19:03:49.632Z,100005.91
2023-02-01T19:06:35.077Z,100013.06
2023-02-01T19:09:02.490Z,100021.81
2023-02-01T19:11:29.555Z,100021.97
2023-02-01T19:13:56.649Z,100014.94
2023-02-01T19:16:23.865Z,100018.16
2023-02-01T19:18:52.866Z,100032.19
2023-02-01T19:24:10.450Z,100048.16
2023-02-01T19:26:37.507Z,100028.78
2023-02-01T19:29:08.531Z,100042.38
2023-02-01T19:31:36.591Z,100025.50
2023-02-01T19:34:06.300Z,100016.78
2023-02-01T19:36:44.551Z,100020.28
2023-02-01T19:39:11.696Z,100030.09
2023-02-01T19:41:39.070Z,100026.44
2023-02-01T19:44:06.671Z,100050.47
2023-02-01T19:46:34.136Z,100005.44
2023-02-01T19:49:01.571Z,100030.28
2023-02-01T19:51:29.379Z,100008.28
2023-02-01T19:53:57.016Z,99988.88
2023-02-01T19:56:24.510Z,99994.25
2023-02-01T19:58:52.177Z,99989.88
2023-02-01T20:01:18.966Z,99977.47
2023-02-01T20:03:46.634Z,99976.19
2023-02-01T20:06:13.752Z,100000.94
2023-02-01T20:08:40.887Z,99999.38
2023-02-01T20:11:08.978Z,99991.44
2023-02-01T20:13:38.721Z,99973.50
2023-02-01T20:16:06.227Z,99982.94
2023-02-01T20:18:35.833Z,99996.41
2023-02-01T20:21:03.032Z,99995.63
2023-02-01T20:23:30.471Z,99973.06
2023-02-01T20:26:04.128Z,99940.25
2023-02-01T20:28:32.636Z,99965.16
2023-02-01T20:31:01.339Z,99956.66
2023-02-01T20:36:08.102Z,99970.41
2023-02-01T20:38:36.132Z,99970.31
2023-02-01T20:41:09.229Z,99988.22
2023-02-01T20:43:36.883Z,99977.31
2023-02-01T20:46:04.377Z,99990.41
2023-02-01T20:48:31.555Z,99984.75
2023-02-01T20:51:00.112Z,100010.31
2023-02-01T20:53:27.341Z,100032.81
2023-02-01T20:55:57.885Z,100025.34
2023-02-01T20:58:25.501Z,100015.50
2023-02-01T21:00:52.728Z,100059.59
2023-02-01T21:03:20.259Z,100054.34
2023-02-01T21:05:53.432Z,100063.19
2023-02-01T21:08:21.566Z,100057.09
2023-02-01T21:11:08.625Z,100068.47
2023-02-01T21:13:43.028Z,100065.94
2023-02-01T21:16:14.774Z,100079.97
2023-02-01T21:18:41.778Z,100071.19
2023-02-01T21:21:14.474Z,100081.66
2023-02-01T21:23:48.930Z,100085.34
2023-02-01T21:26:21.923Z,100078.47
2023-02-01T21:28:50.826Z,100067.97
2023-02-01T21:31:21.069Z,100056.41
2023-02-01T21:33:49.204Z,100054.47
2023-02-01T21:36:21.041Z,100080.88
2023-02-01T21:38:55.196Z,100081.66
2023-02-01T21:41:43.430Z,100110.56
2023-02-01T21:44:14.622Z,100109.03
2023-02-01T21:46:43.306Z,100094.94
2023-02-01T21:49:10.892Z,100105.31
2023-02-01T21:51:39.151Z,100106.19
2023-02-01T21:54:08.902Z,100114.34
2023-02-01T21:56:37.515Z,100121.22
2023-02-01T21:59:05.027Z,100122.03
2023-02-01T22:01:32.775Z,100128.25
2023-02-01T22:03:59.800Z,100120.38
2023-02-01T22:06:41.496Z,100123.72
2023-02-01T22:09:19.030Z,100137.06
2023-02-01T22:11:46.843Z,100130.50
2023-02-01T22:14:14.647Z,100124.91
2023-02-01T22:16:42.153Z,100137.72
2023-02-01T22:19:10.442Z,100118.19
2023-02-01T22:21:39.071Z,100119.69
2023-02-01T22:24:06.821Z,100129.44
2023-02-01T22:26:33.938Z,100131.25
2023-02-01T22:29:01.188Z,100140.94
2023-02-01T22:31:28.395Z,100134.00
2023-02-01T22:33:56.893Z,100136.56
2023-02-01T22:36:25.229Z,100142.91
2023-02-01T22:38:53.103Z,100136.66
2023-02-01T22:41:20.535Z,100131.41
2023-02-01T22:43:47.852Z,100130.50
2023-02-01T22:46:20.247Z,100142.94
2023-02-01T22:48:47.637Z,100148.06
2023-02-01T22:51:28.300Z,100150.69
2023-02-01T22:53:58.700Z,100135.78
2023-02-01T22:56:34.884Z,100141.75
2023-02-01T22:59:05.330Z,100146.31
2023-02-01T23:01:33.492Z,100143.59
2023-02-01T23:04:04.262Z,100151.53
2023-02-01T23:06:32.766Z,100157.75
2023-02-01T23:09:14.242Z,100157.81
2023-02-01T23:11:42.637Z,100167.56
2023-02-01T23:14:10.837Z,100163.13
2023-02-01T23:16:39.296Z,100156.88
2023-02-01T23:19:11.565Z,100166.66
2023-02-01T23:21:38.751Z,100173.94
2023-02-01T23:24:07.763Z,100145.72
2023-02-01T23:26:35.530Z,100147.41
2023-02-01T23:29:03.901Z,100154.28
2023-02-01T23:31:34.204Z,100162.31
2023-02-01T23:34:04.185Z,100157.91
2023-02-01T23:36:33.133Z,100168.31
2023-02-01T23:39:01.895Z,100182.19
2023-02-01T23:41:30.228Z,100199.03
2023-02-01T23:44:00.292Z,100199.03
2023-02-01T23:46:34.607Z,100196.28
2023-02-01T23:49:04.560Z,100191.19
2023-02-01T23:51:32.116Z,100206.19
2023-02-01T23:54:00.241Z,100200.09
2023-02-01T23:56:35.529Z,100200.94
2023-02-01T23:59:15.963Z,100188.47
